Time;durP1;ratioP1;P1;durP2;ratioP2;P2;SDS_P1;SDS_P2;PMS_P1;PMS_P2;Temp;Humidity;BMP_temperature;BMP_pressure;BME280_temperature;BME280_humidity;BME280_pressure;Samples;Min_cycle;Max_cycle;Signal;HPM_P1;HPM_P2
2022/08/04 00:00:29;;;;;;;15.07;9.40;;;25.30;73.40;;;27.87;53.46;101340.16;5095219;28;20262;-64
2022/08/04 00:03:12;;;;;;;12.90;9.57;;;25.30;73.40;;;27.84;53.42;101344.22;5095583;28;20642;-63
2022/08/04 00:05:57;;;;;;;12.83;9.80;;;25.30;73.60;;;27.84;53.03;101349.66;5096173;28;20195;-63
2022/08/04 00:08:40;;;;;;;13.77;10.13;;;25.30;73.50;;;27.83;53.26;101345.34;5096544;28;20219;-63
2022/08/04 00:11:13;;;;;;;16.17;10.97;;;25.30;73.60;;;27.87;53.19;101341.00;5093835;28;20219;-63
2022/08/04 00:13:52;;;;;;;16.87;10.10;;;25.30;73.30;;;27.83;53.10;101336.41;5095331;28;20196;-63
2022/08/04 00:16:36;;;;;;;10.87;8.03;;;25.30;73.30;;;27.82;52.82;101335.59;5095271;28;20191;-63
2022/08/04 00:19:11;;;;;;;11.23;9.73;;;25.30;73.30;;;27.81;53.11;101336.69;5095412;28;20181;-63
2022/08/04 00:21:50;;;;;;;15.60;10.63;;;25.20;73.50;;;27.81;53.77;101333.16;5094795;28;20216;-62
2022/08/04 00:24:20;;;;;;;15.00;9.87;;;25.30;74.00;;;27.82;53.62;101332.06;5096153;28;20263;-61
2022/08/04 00:26:52;;;;;;;13.63;9.83;;;25.20;73.90;;;27.81;53.26;101328.56;5095023;28;20249;-64
2022/08/04 00:29:20;;;;;;;16.43;11.37;;;25.20;73.90;;;27.80;53.40;101329.63;5094741;28;20675;-62
2022/08/04 00:31:49;;;;;;;14.53;10.23;;;25.20;74.20;;;27.78;53.93;101326.41;5094351;28;20219;-63
2022/08/04 00:34:27;;;;;;;15.23;9.53;;;25.20;74.40;;;27.78;53.57;101331.81;5095101;28;20189;-63
2022/08/04 00:36:57;;;;;;;14.43;8.97;;;25.20;74.30;;;27.76;53.63;101323.16;5094787;28;20193;-63
2022/08/04 00:39:25;;;;;;;11.20;9.17;;;25.10;74.30;;;27.75;53.51;101332.34;5094885;28;20196;-63
2022/08/04 00:42:36;;;;;;;15.73;9.70;;;25.10;74.20;;;27.63;53.88;101323.72;5095478;28;20292;-63
2022/08/04 00:45:37;;;;;;;15.17;9.00;;;25.10;74.50;;;27.66;53.95;101333.19;5094536;28;20590;-63
2022/08/04 00:48:49;;;;;;;12.60;10.03;;;25.10;74.40;;;27.62;53.63;101327.53;5093635;28;20325;-63
2022/08/04 00:51:36;;;;;;;17.53;10.13;;;25.10;74.40;;;27.59;54.07;101330.75;5074083;28;20223;-63
2022/08/04 00:54:16;;;;;;;15.07;9.70;;;25.10;74.20;;;27.57;54.04;101322.09;5088810;28;20192;-62
2022/08/04 00:57:18;;;;;;;16.03;10.20;;;25.10;74.30;;;27.49;54.19;101325.34;5095738;28;20526;-62
2022/08/04 01:00:11;;;;;;;13.83;9.77;;;25.00;74.60;;;27.47;54.26;101314.00;5094079;28;20184;-60
2022/08/04 01:03:06;;;;;;;15.13;9.83;;;25.00;74.50;;;27.44;54.41;101314.53;5094040;28;20611;-62
2022/08/04 01:05:56;;;;;;;14.13;8.47;;;25.00;74.60;;;27.43;54.27;101310.22;5094265;28;20253;-63
2022/08/04 01:08:55;;;;;;;13.20;9.23;;;25.00;74.70;;;27.41;54.15;101309.66;5093891;28;20649;-63
2022/08/04 01:11:48;;;;;;;11.33;7.80;;;25.00;74.60;;;27.42;53.83;101309.41;5091835;28;20231;-63
2022/08/04 01:15:04;;;;;;;15.20;9.10;;;25.00;74.80;;;27.36;54.55;101306.97;5095390;28;20275;-62
2022/08/04 01:17:48;;;;;;;11.03;8.00;;;24.90;74.90;;;27.39;54.39;101306.41;5094293;28;20192;-62
2022/08/04 01:20:23;;;;;;;15.40;9.70;;;24.90;74.70;;;27.41;54.36;101305.06;5094382;28;20181;-63
2022/08/04 01:23:44;;;;;;;14.87;9.40;;;24.90;75.20;;;27.32;54.93;101300.44;5093452;28;20234;-63
2022/08/04 01:26:49;;;;;;;13.67;9.47;;;24.90;75.20;;;27.30;54.37;101297.22;5093629;28;20202;-64
2022/08/04 01:29:34;;;;;;;15.20;9.97;;;24.90;75.40;;;27.36;54.56;101302.34;5093509;28;20319;-62
2022/08/04 01:32:21;;;;;;;11.93;8.27;;;24.90;75.80;;;27.39;54.72;101295.59;5094712;28;20216;-63
2022/08/04 01:35:01;;;;;;;11.67;8.13;;;24.90;75.60;;;27.42;54.50;101301.28;5092926;28;20184;-62
2022/08/04 01:37:48;;;;;;;10.33;7.97;;;24.90;75.60;;;27.40;54.94;101295.34;5093169;28;20188;-62
2022/08/04 01:40:16;;;;;;;12.23;8.93;;;24.90;75.80;;;27.47;54.58;101297.78;5092934;28;20271;-64
2022/08/04 01:42:47;;;;;;;11.60;8.40;;;24.90;75.70;;;27.48;54.55;101291.28;5092505;28;20235;-64
2022/08/04 01:45:16;;;;;;;9.97;7.93;;;24.90;75.50;;;27.47;54.17;101289.66;5092974;28;20191;-64
2022/08/04 01:47:50;;;;;;;11.90;8.30;;;24.90;75.40;;;27.43;54.25;101288.59;5094715;28;20653;-64
2022/08/04 01:50:19;;;;;;;12.27;8.80;;;24.90;75.40;;;27.43;54.29;101288.59;5108064;28;20211;-64
2022/08/04 01:52:46;;;;;;;14.23;10.53;;;24.90;75.40;;;27.40;54.19;101289.94;5109704;28;20212;-64
2022/08/04 01:55:18;;;;;;;10.70;8.50;;;24.80;75.30;;;27.37;54.33;101292.34;5093404;28;20193;-64
2022/08/04 01:57:49;;;;;;;11.63;9.30;;;24.80;75.40;;;27.36;54.26;101290.72;5093270;28;20705;-64
2022/08/04 02:00:21;;;;;;;12.07;8.83;;;24.80;76.40;;;27.33;54.70;101283.97;5093411;28;20191;-64
2022/08/04 02:02:50;;;;;;;11.20;8.17;;;24.80;75.60;;;27.33;54.36;101280.44;5094501;28;20648;-66
2022/08/04 02:05:21;;;;;;;10.07;8.83;;;24.80;75.60;;;27.33;54.60;101285.84;5110291;28;20467;-63
2022/08/04 02:08:16;;;;;;;15.53;9.07;;;24.80;75.90;;;27.26;54.73;101275.31;5109296;28;20203;-63
2022/08/04 02:11:02;;;;;;;12.40;8.47;;;24.70;76.20;;;27.27;54.69;101276.94;5093463;28;20216;-63
2022/08/04 02:13:38;;;;;;;15.13;9.03;;;24.70;76.10;;;27.30;54.48;101275.56;5093759;28;20192;-62
2022/08/04 02:16:18;;;;;;;11.20;8.90;;;24.70;76.20;;;27.28;54.88;101275.03;5093249;28;20188;-63
2022/08/04 02:19:00;;;;;;;12.17;9.23;;;24.70;76.00;;;27.26;55.11;101274.50;5093644;28;20667;-62
2022/08/04 02:21:31;;;;;;;13.10;9.80;;;24.70;76.10;;;27.24;54.93;101265.84;5094422;28;20224;-62
2022/08/04 02:24:17;;;;;;;13.77;9.80;;;24.70;76.20;;;27.15;55.38;101256.66;5093087;28;20275;-62
2022/08/04 02:26:52;;;;;;;13.63;8.77;;;24.70;76.60;;;27.14;55.29;101260.44;5093031;28;20192;-62
2022/08/04 02:29:26;;;;;;;10.70;8.10;;;24.70;76.50;;;27.13;55.55;101258.81;5092994;28;20584;-62
2022/08/04 02:32:05;;;;;;;12.10;9.23;;;24.60;76.40;;;27.11;55.41;101255.56;5093065;28;20215;-62
2022/08/04 02:34:44;;;;;;;13.40;9.10;;;24.60;76.60;;;27.07;55.83;101255.31;5095464;28;20195;-62
2022/08/04 02:37:15;;;;;;;10.90;8.90;;;24.60;76.70;;;27.06;55.97;101253.69;5108365;28;20195;-62
2022/08/04 02:39:46;;;;;;;16.47;9.37;;;24.60;77.00;;;27.03;55.47;101251.53;5100241;28;20199;-62
2022/08/04 02:42:17;;;;;;;11.07;9.07;;;24.60;76.90;;;27.02;56.01;101257.22;5097729;28;20209;-61
2022/08/04 02:44:50;;;;;;;14.23;9.70;;;24.60;77.00;;;26.97;55.88;101255.31;5097881;28;20196;-62
2022/08/04 02:47:20;;;;;;;15.60;9.93;;;24.50;77.10;;;26.94;55.76;101249.63;5113406;28;20193;-62
2022/08/04 02:49:51;;;;;;;14.27;9.83;;;24.50;77.30;;;26.91;56.30;101250.19;5108160;28;20220;-62
2022/08/04 02:52:20;;;;;;;16.00;11.33;;;24.50;77.20;;;26.86;56.21;101249.09;5133333;27;20241;-62
2022/08/04 02:54:54;;;;;;;14.27;10.23;;;24.40;77.40;;;26.80;55.95;101244.78;5098340;28;20552;-62
2022/08/04 02:57:28;;;;;;;15.27;11.37;;;24.40;77.50;;;26.76;56.67;101246.41;5097552;28;20188;-62
2022/08/04 03:00:14;;;;;;;12.50;11.17;;;24.40;77.80;;;26.68;56.69;101246.88;5097596;28;20196;-62
2022/08/04 03:02:58;;;;;;;14.13;9.63;;;24.30;78.00;;;26.68;56.58;101249.59;5096874;28;20204;-62
2022/08/04 03:05:33;;;;;;;11.37;9.83;;;24.30;78.10;;;26.68;56.53;101246.06;5097188;28;20637;-62
2022/08/04 03:09:04;;;;;;;13.83;10.20;;;24.30;78.10;;;26.58;56.87;101241.47;5096593;28;20199;-62
2022/08/04 03:12:10;;;;;;;12.63;9.07;;;24.30;78.40;;;26.60;56.79;101235.81;5097857;28;20220;-62
2022/08/04 03:15:19;;;;;;;12.13;8.60;;;24.20;78.50;;;26.59;57.13;101229.59;5097891;28;20297;-61
2022/08/04 03:18:36;;;;;;;11.23;8.47;;;24.20;78.40;;;26.60;56.63;101233.91;5095796;28;20192;-61
2022/08/04 03:21:54;;;;;;;12.17;9.90;;;24.20;78.30;;;26.60;56.37;101235.81;5096288;28;20188;-62
2022/08/04 03:25:11;;;;;;;12.33;9.60;;;24.20;78.30;;;26.57;57.31;101237.16;5097403;28;20185;-62
2022/08/04 03:28:40;;;;;;;13.50;9.07;;;24.20;78.30;;;26.51;56.84;101235.50;5112254;28;20203;-62
2022/08/04 03:31:46;;;;;;;18.87;9.87;;;24.20;78.30;;;26.51;57.57;101230.13;5053117;28;20225;-62
2022/08/04 03:34:39;;;;;;;13.43;8.90;;;24.20;78.50;;;26.54;56.99;101229.59;5053732;28;20239;-62
2022/08/04 03:37:57;;;;;;;9.90;8.23;;;24.20;78.50;;;26.49;57.22;101226.88;5115639;28;20668;-63
2022/08/04 03:41:15;;;;;;;10.83;8.57;;;24.20;78.60;;;26.50;57.14;101223.09;5097831;28;20725;-62
2022/08/04 03:44:59;;;;;;;8.97;7.90;;;24.20;78.60;;;26.46;56.80;101227.41;5114733;28;20191;-63
2022/08/04 03:48:21;;;;;;;10.47;7.97;;;24.10;78.40;;;26.48;56.88;101222.53;5113031;28;20707;-64
2022/08/04 03:55:22;;;;;;;11.60;8.10;;;24.10;78.40;;;26.46;57.21;101224.69;5091015;28;20212;-62
2022/08/04 03:58:36;;;;;;;13.47;9.00;;;24.10;78.50;;;26.44;57.72;101226.03;5095391;28;20234;-63
2022/08/04 04:01:29;;;;;;;15.90;10.07;;;24.10;78.70;;;26.46;58.10;101224.69;5112392;28;20207;-63
2022/08/04 04:04:43;;;;;;;12.97;10.43;;;24.10;79.20;;;26.38;57.95;101225.25;5115864;27;20192;-63
2022/08/04 04:07:48;;;;;;;11.87;9.87;;;24.10;79.40;;;26.30;58.16;101217.66;5115688;28;20202;-61
2022/08/04 04:11:05;;;;;;;12.17;9.80;;;24.10;79.60;;;26.31;57.95;101227.38;5075145;28;20592;-63
2022/08/04 04:14:05;;;;;;;15.07;9.97;;;24.00;79.50;;;26.27;58.55;101218.19;5075138;28;20193;-63
2022/08/04 04:17:07;;;;;;;10.77;9.67;;;24.00;80.50;;;26.25;57.90;101214.94;5089989;28;20196;-63
2022/08/04 04:20:16;;;;;;;12.20;10.30;;;24.00;79.80;;;26.29;57.94;101216.06;5094847;28;20277;-62
2022/08/04 04:23:04;;;;;;;13.70;10.00;;;24.00;80.00;;;26.31;58.29;101213.88;5064240;28;20250;-63
2022/08/04 04:25:58;;;;;;;13.33;8.50;;;24.00;80.10;;;26.34;58.42;101218.72;5095479;28;20208;-63
2022/08/04 04:28:57;;;;;;;12.47;8.20;;;24.00;79.90;;;26.38;58.05;101219.84;5095073;28;20196;-64
2022/08/04 04:31:56;;;;;;;13.87;9.43;;;24.00;80.00;;;26.43;57.90;101217.16;5091680;28;20238;-62
2022/08/04 04:34:47;;;;;;;10.60;9.07;;;24.00;79.90;;;26.47;57.66;101212.84;5096270;28;20203;-64
2022/08/04 04:37:53;;;;;;;12.60;9.73;;;24.00;79.80;;;26.49;57.29;101210.66;5094922;28;20653;-64
2022/08/04 04:40:40;;;;;;;14.97;8.57;;;24.10;79.70;;;26.56;57.78;101218.50;5095167;28;20188;-64
2022/08/04 04:43:59;;;;;;;11.50;9.73;;;24.10;79.70;;;26.56;57.17;101215.81;5094897;28;20319;-62
2022/08/04 04:46:40;;;;;;;10.53;8.27;;;24.10;79.50;;;26.68;57.04;101219.06;5076939;28;20282;-64
2022/08/04 04:49:21;;;;;;;11.57;9.17;;;24.10;79.20;;;26.74;57.13;101218.78;5099746;28;20214;-63
2022/08/04 04:51:59;;;;;;;14.63;9.87;;;24.20;79.30;;;26.80;56.93;101217.75;5114798;28;20203;-64
2022/08/04 04:54:36;;;;;;;14.57;9.30;;;24.20;79.40;;;26.83;56.45;101211.81;5096547;28;20279;-63
2022/08/04 04:57:12;;;;;;;14.40;8.53;;;24.20;79.00;;;26.90;56.35;101210.72;5093849;28;20195;-64
2022/08/04 04:59:49;;;;;;;12.33;8.67;;;24.30;79.00;;;26.99;56.22;101203.69;5094228;28;20193;-64
2022/08/04 05:02:52;;;;;;;15.70;9.13;;;24.40;79.00;;;26.97;56.55;101203.97;5094113;28;20200;-64
2022/08/04 05:06:06;;;;;;;9.23;7.93;;;24.40;78.60;;;27.00;55.70;101210.72;5103878;28;20274;-63
2022/08/04 05:09:05;;;;;;;11.53;7.77;;;24.50;78.50;;;27.07;55.57;101201.25;5086533;28;20236;-63
2022/08/04 05:12:31;;;;;;;10.20;7.33;;;24.50;78.20;;;27.12;55.72;101203.13;5093388;28;20273;-62
2022/08/04 05:15:25;;;;;;;8.57;6.33;;;24.60;77.90;;;27.23;55.38;101196.63;5093584;28;20518;-64
2022/08/04 05:17:57;;;;;;;10.30;5.70;;;24.70;77.50;;;27.30;55.17;101199.84;5094268;28;20188;-63
2022/08/04 05:20:33;;;;;;;10.53;6.30;;;24.70;77.30;;;27.34;55.02;101195.50;5111025;28;20191;-63
2022/08/04 05:23:09;;;;;;;10.33;6.23;;;24.70;77.10;;;27.34;54.72;101192.81;5114180;28;20215;-64
2022/08/04 05:25:44;;;;;;;11.00;6.57;;;24.80;76.70;;;27.35;54.53;101191.72;5114585;28;20628;-63
2022/08/04 05:28:36;;;;;;;10.23;7.20;;;24.80;76.30;;;27.31;54.40;101190.66;5113009;28;20358;-64
2022/08/04 05:31:10;;;;;;;10.67;6.67;;;24.80;75.90;;;27.31;54.44;101190.66;5113620;28;20259;-64
2022/08/04 05:33:46;;;;;;;17.53;6.70;;;24.80;75.90;;;27.33;54.52;101183.09;5114247;28;20215;-64
2022/08/04 05:36:19;;;;;;;11.00;6.80;;;24.90;76.00;;;27.39;54.76;101184.72;5103115;28;20561;-63
2022/08/04 05:39:14;;;;;;;10.40;5.80;;;24.90;76.10;;;27.45;54.27;101186.34;5093959;28;20207;-64
2022/08/04 05:41:44;;;;;;;7.93;6.63;;;24.90;76.00;;;27.53;54.35;101183.03;5093464;28;20219;-64
2022/08/04 05:44:26;;;;;;;8.07;6.50;;;24.90;75.90;;;27.59;54.07;101181.94;5093210;28;20188;-65
2022/08/04 05:46:57;;;;;;;10.10;5.50;;;25.00;75.80;;;27.69;53.86;101181.91;5093552;28;20226;-63
2022/08/04 05:49:27;;;;;;;8.00;5.87;;;25.10;75.80;;;27.77;53.77;101186.75;5100343;28;20278;-63
2022/08/04 05:51:59;;;;;;;11.33;6.37;;;25.10;75.80;;;27.85;53.76;101177.22;5111694;28;20598;-64
2022/08/04 05:54:29;;;;;;;10.47;6.20;;;25.20;75.60;;;27.92;53.20;101180.44;5093460;28;20202;-62
2022/08/04 05:56:58;;;;;;;7.23;5.87;;;25.20;75.30;;;28.00;53.21;101172.56;5093816;28;20189;-64
2022/08/04 05:59:31;;;;;;;7.03;5.57;;;25.30;75.30;;;28.08;53.11;101174.69;5093282;28;20272;-64
2022/08/04 06:02:01;;;;;;;10.23;5.70;;;25.30;75.10;;;28.17;53.00;101175.72;5093002;28;20208;-64
2022/08/04 06:04:36;;;;;;;7.13;5.27;;;25.40;74.90;;;28.24;52.87;101171.91;5093665;28;20660;-63
2022/08/04 06:07:04;;;;;;;8.87;5.30;;;25.50;74.70;;;28.29;52.83;101172.66;5093356;28;20664;-63
2022/08/04 06:09:32;;;;;;;11.00;5.50;;;25.60;74.50;;;28.32;52.47;101174.00;5093980;28;20185;-63
2022/08/04 06:12:05;;;;;;;9.77;6.47;;;25.60;74.40;;;28.34;52.52;101166.41;5092616;28;20232;-65
2022/08/04 06:14:40;;;;;;;12.40;6.70;;;25.60;74.20;;;28.34;52.60;101169.91;5093305;28;20189;-65
2022/08/04 06:17:12;;;;;;;11.93;6.73;;;25.70;74.10;;;28.42;52.28;101163.91;5093118;28;20694;-64
2022/08/04 06:20:01;;;;;;;8.10;6.13;;;25.70;74.00;;;28.46;52.31;101166.84;5092984;28;20192;-64
2022/08/04 06:22:54;;;;;;;5.80;5.20;;;25.80;73.70;;;28.54;52.68;101172.50;5092755;28;20296;-63
2022/08/04 06:25:26;;;;;;;11.53;6.60;;;25.80;73.60;;;28.63;51.65;101170.81;5093518;28;20241;-63
2022/08/04 06:27:56;;;;;;;8.07;6.77;;;25.90;73.40;;;28.66;51.59;101172.16;5091932;28;20200;-64
2022/08/04 06:30:29;;;;;;;8.63;6.50;;;25.90;72.70;;;28.69;51.44;101175.09;5092364;28;20362;-64
2022/08/04 06:33:01;;;;;;;6.97;6.13;;;26.00;72.30;;;28.78;51.12;101172.59;5092602;28;20212;-63
2022/08/04 06:35:32;;;;;;;10.20;5.87;;;26.10;72.20;;;28.87;50.91;101170.88;5092929;28;20291;-64
2022/08/04 06:38:02;;;;;;;9.50;5.43;;;26.20;71.60;;;28.96;50.35;101169.16;5092870;28;20188;-64
2022/08/04 06:40:31;;;;;;;10.10;4.97;;;26.30;71.30;;;29.03;49.95;101161.50;5092693;28;20181;-64
2022/08/04 06:43:03;;;;;;;9.13;4.47;;;26.30;70.80;;;29.14;50.17;101164.94;5106051;28;20211;-64
2022/08/04 06:45:36;;;;;;;8.73;4.63;;;26.40;70.60;;;29.24;49.40;101154.78;5113570;28;20216;-64
2022/08/04 06:48:06;;;;;;;7.23;4.87;;;26.50;70.00;;;29.36;49.50;101155.19;5113196;28;20223;-65
2022/08/04 06:50:36;;;;;;;10.13;5.30;;;26.60;69.80;;;29.42;49.01;101162.19;5112671;28;20236;-64
2022/08/04 06:53:25;;;;;;;6.87;4.93;;;26.70;69.10;;;29.54;48.94;101158.25;5104600;28;20192;-64
2022/08/04 06:55:55;;;;;;;7.40;4.13;;;26.80;69.00;;;29.67;48.83;101157.56;5094911;28;20260;-65
2022/08/04 06:58:24;;;;;;;7.50;4.33;;;26.80;68.90;;;29.80;48.40;101144.09;5098004;28;20192;-64
2022/08/04 07:01:00;;;;;;;6.03;3.97;;;27.00;68.70;;;29.93;47.68;101145.28;5114955;28;20208;-63
2022/08/04 07:03:29;;;;;;;7.77;3.93;;;27.10;68.00;;;30.01;47.37;101141.91;5113303;28;20559;-65
2022/08/04 07:05:58;;;;;;;7.43;4.70;;;27.20;67.30;;;30.05;47.71;101148.34;5093499;28;20197;-63
2022/08/04 07:08:34;;;;;;;7.13;4.47;;;27.30;66.80;;;30.10;46.92;101142.84;5091343;28;20245;-65
2022/08/04 07:11:04;;;;;;;7.80;4.27;;;27.30;66.50;;;30.21;47.41;101141.63;5107695;28;20232;-64
2022/08/04 07:13:32;;;;;;;4.40;4.00;;;27.40;66.50;;;30.33;46.53;101133.84;5092822;28;20217;-63
2022/08/04 07:16:03;;;;;;;7.90;4.67;;;27.50;66.20;;;30.48;46.38;101130.84;5093637;28;20192;-64
2022/08/04 07:18:30;;;;;;;8.07;3.90;;;27.60;66.10;;;30.62;46.85;101134.44;5092722;28;20590;-64
2022/08/04 07:20:58;;;;;;;7.30;3.50;;;27.70;66.00;;;30.77;46.48;101128.72;5094834;28;20184;-64
2022/08/04 07:23:27;;;;;;;5.30;3.40;;;27.90;65.70;;;30.92;46.36;101129.59;5096121;28;20271;-64
2022/08/04 07:25:57;;;;;;;8.03;3.70;;;28.00;65.40;;;31.10;45.55;101120.53;5096376;28;20188;-64
2022/08/04 07:28:40;;;;;;;7.47;3.67;;;28.10;65.10;;;31.23;45.64;101128.72;5096145;28;20267;-64
2022/08/04 07:31:18;;;;;;;5.63;3.47;;;28.30;64.40;;;31.37;44.66;101126.78;5097576;28;20281;-65
2022/08/04 07:34:02;;;;;;;5.83;3.87;;;28.40;63.70;;;31.54;43.93;101123.47;5116853;28;20195;-64
2022/08/04 07:36:48;;;;;;;7.00;3.57;;;28.60;62.50;;;31.74;44.12;101136.63;5116423;28;20187;-63
2022/08/04 07:39:18;;;;;;;7.03;4.50;;;28.80;62.10;;;31.92;43.56;101124.81;5114975;28;20267;-63
2022/08/04 07:41:57;;;;;;;6.13;4.00;;;28.90;61.70;;;32.12;42.87;101125.47;5116084;28;20723;-63
2022/08/04 07:44:26;;;;;;;5.37;3.73;;;29.10;61.10;;;32.29;42.44;101131.03;5116415;28;20696;-63
2022/08/04 07:46:59;;;;;;;6.33;3.67;;;29.20;60.30;;;32.46;42.30;101117.53;5116867;28;20191;-64
2022/08/04 07:49:27;;;;;;;5.10;3.67;;;29.40;59.80;;;32.62;42.11;101124.22;5106335;28;20275;-62
2022/08/04 07:52:15;;;;;;;7.77;3.80;;;29.50;59.60;;;32.75;41.36;101126.09;5115885;28;20370;-63
2022/08/04 07:54:43;;;;;;;8.50;3.30;;;29.70;58.70;;;32.84;40.44;101124.19;5096145;27;20205;-63
2022/08/04 07:57:11;;;;;;;4.23;2.73;;;29.80;57.50;;;33.08;40.00;101115.66;5095752;28;20203;-63
2022/08/04 07:59:58;;;;;;;11.87;3.50;;;30.00;57.40;;;33.50;39.85;101116.88;5096130;28;20204;-63
2022/08/04 08:02:28;;;;;;;7.20;3.93;;;30.20;57.10;;;33.95;38.55;101121.81;5095313;28;20737;-63
2022/08/04 08:04:56;;;;;;;6.90;3.43;;;30.50;56.10;;;34.25;37.57;101117.34;5094199;27;20216;-61
2022/08/04 08:07:23;;;;;;;6.20;3.20;;;30.80;55.00;;;34.50;37.26;101113.72;5095182;28;20193;-64
2022/08/04 08:09:51;;;;;;;5.70;3.05;;;31.00;53.70;;;34.80;35.76;101116.59;5094591;28;20191;-64
2022/08/04 08:12:19;;;;;;;5.72;2.78;;;31.30;52.30;;;34.94;35.13;101117.16;5094162;28;20223;-63
2022/08/04 08:15:09;;;;;;;5.85;2.95;;;31.60;51.70;;;35.05;34.92;101102.00;5093164;28;20212;-62
2022/08/04 08:17:40;;;;;;;6.80;3.50;;;31.70;50.50;;;35.23;34.21;101111.75;5094540;28;20191;-63
2022/08/04 08:20:29;;;;;;;3.47;2.50;;;31.90;48.60;;;35.63;33.45;101107.50;5095916;28;20259;-63
2022/08/04 08:22:58;;;;;;;8.95;3.28;;;32.20;49.10;;;35.94;32.82;101109.84;5074957;28;20209;-63
2022/08/04 08:25:26;;;;;;;4.90;2.70;;;32.40;47.50;;;36.39;31.82;101104.44;5075091;28;20235;-62
2022/08/04 08:27:53;;;;;;;8.63;2.90;;;32.70;46.90;;;36.91;31.98;101105.47;5074444;28;20216;-65
2022/08/04 08:30:23;;;;;;;5.40;2.85;;;33.00;47.30;;;37.42;30.97;101097.72;5073727;28;20560;-64
2022/08/04 08:33:05;;;;;;;6.25;3.03;;;33.40;45.90;;;38.36;29.57;101091.47;5073606;28;20235;-64
2022/08/04 08:35:51;;;;;;;3.95;2.65;;;33.80;44.80;;;39.40;28.66;101092.84;5073241;28;20520;-64
2022/08/04 08:38:39;;;;;;;3.90;2.75;;;34.40;44.40;;;39.74;27.00;101083.78;5097681;27;20221;-64
2022/08/04 08:41:41;;;;;;;5.13;3.20;;;35.00;41.20;;;39.92;26.75;101084.16;5074122;28;20185;-63
2022/08/04 08:44:40;;;;;;;3.22;2.92;;;35.40;39.60;;;40.14;25.85;101086.19;5074480;28;20629;-62
2022/08/04 08:47:34;;;;;;;4.45;2.75;;;35.70;39.30;;;40.64;25.26;101082.38;5073805;28;20185;-63
2022/08/04 08:51:05;;;;;;;4.78;3.38;;;36.10;38.50;;;41.04;24.68;101085.41;5104395;28;20188;-64
2022/08/04 08:53:56;;;;;;;3.85;2.78;;;36.50;36.20;;;41.42;23.98;101078.88;5114862;27;20229;-63
2022/08/04 08:56:35;;;;;;;5.72;3.20;;;36.80;36.30;;;42.09;23.70;101074.19;5076240;28;20193;-63
2022/08/04 08:59:37;;;;;;;3.45;2.85;;;37.20;35.80;;;41.84;24.03;101079.47;5094410;28;20652;-63
2022/08/04 09:03:10;;;;;;;5.13;3.15;;;37.40;34.60;;;41.65;23.60;101076.81;5093867;28;20664;-63
2022/08/04 09:06:30;;;;;;;5.40;3.17;;;37.60;34.00;;;41.67;23.40;101071.72;5095476;28;20215;-65
2022/08/04 09:09:38;;;;;;;4.70;3.20;;;37.70;34.50;;;41.29;23.31;101069.22;5091570;28;20261;-63
2022/08/04 09:12:17;;;;;;;3.75;2.83;;;37.60;33.20;;;41.38;23.64;101072.50;5091991;28;20227;-63
2022/08/04 09:14:54;;;;;;;3.85;3.50;;;37.60;32.90;;;41.59;22.25;101064.47;5115212;28;20182;-64
2022/08/04 09:17:32;;;;;;;4.07;3.00;;;37.50;31.70;;;41.48;22.54;101060.78;5113716;28;20184;-64
2022/08/04 09:20:08;;;;;;;5.35;2.97;;;37.50;31.20;;;41.34;22.87;101063.38;5115158;28;20194;-63
2022/08/04 09:22:53;;;;;;;5.80;3.10;;;37.60;31.60;;;41.10;23.16;101068.13;5115155;28;20203;-64
2022/08/04 09:26:15;;;;;;;4.13;2.92;;;37.50;31.60;;;41.33;22.46;101065.34;5091328;28;20188;-65
2022/08/04 09:29:18;;;;;;;3.65;2.72;;;37.50;31.50;;;42.00;22.43;101057.88;5095416;28;20211;-64
2022/08/04 09:32:12;;;;;;;3.13;2.88;;;37.70;32.70;;;42.85;21.33;101067.00;5077800;28;20251;-63
2022/08/04 09:35:05;;;;;;;3.47;3.17;;;37.90;31.00;;;43.51;20.69;101069.44;5079086;28;20295;-62
2022/08/04 09:37:47;;;;;;;4.25;3.13;;;38.30;30.90;;;43.99;20.57;101070.00;5092838;28;20257;-63
2022/08/04 09:40:24;;;;;;;5.75;3.30;;;38.70;30.80;;;43.87;19.98;101067.59;5094315;28;20199;-63
2022/08/04 09:43:31;;;;;;;3.65;3.35;;;38.90;29.10;;;43.76;20.04;101061.22;5094792;28;20223;-63
2022/08/04 09:46:25;;;;;;;4.38;3.20;;;39.10;29.20;;;44.57;18.91;101061.41;5095210;28;20189;-63
2022/08/04 09:49:00;;;;;;;4.78;2.63;;;39.30;28.70;;;45.29;18.58;101068.50;5097702;28;20680;-64
2022/08/04 09:51:49;;;;;;;5.25;2.90;;;39.60;29.20;;;46.19;17.79;101058.09;5114860;28;20318;-62
2022/08/04 09:54:44;;;;;;;3.42;2.90;;;40.10;28.50;;;47.09;16.92;101045.81;5097500;28;20192;-64
2022/08/04 09:57:35;;;;;;;3.95;3.15;;;40.60;27.60;;;47.43;16.30;101051.41;5094768;28;20204;-63
2022/08/04 10:00:08;;;;;;;4.45;3.50;;;41.00;26.30;;;47.75;16.26;101053.75;5094123;28;20213;-65
2022/08/04 10:02:41;;;;;;;5.22;3.20;;;41.40;26.30;;;47.84;15.82;101045.66;5094883;28;20209;-64
2022/08/04 10:05:17;;;;;;;3.80;3.10;;;41.70;24.80;;;47.80;15.80;101042.13;5094387;28;20212;-63
2022/08/04 10:08:07;;;;;;;4.63;4.28;;;41.90;25.00;;;48.02;15.09;101035.81;5094344;28;20198;-64
2022/08/04 10:10:58;;;;;;;3.20;2.90;;;42.20;24.90;;;48.28;15.02;101039.81;5107391;28;20254;-64
2022/08/04 10:13:45;;;;;;;3.10;2.90;;;42.40;24.20;;;48.60;14.99;101031.69;5092168;27;20215;-63
2022/08/04 10:16:39;;;;;;;3.65;3.05;;;42.60;24.50;;;48.53;14.80;101031.81;5092821;28;20193;-63
2022/08/04 10:19:25;;;;;;;3.42;3.13;;;42.70;23.80;;;48.73;14.31;101038.25;5092623;28;20233;-62
2022/08/04 10:22:13;;;;;;;3.40;3.10;;;42.90;23.60;;;48.96;14.93;101025.44;5092515;28;20692;-63
2022/08/04 10:25:14;;;;;;;3.40;2.80;;;43.00;23.50;;;49.03;13.81;101026.09;5092594;28;20656;-62
2022/08/04 10:28:15;;;;;;;3.30;2.90;;;43.10;22.70;;;49.30;14.11;101018.38;5092621;28;20188;-65
2022/08/04 10:30:54;;;;;;;3.38;2.75;;;43.30;23.00;;;49.06;13.95;101021.63;5092710;28;20657;-64
2022/08/04 10:33:30;;;;;;;3.53;3.15;;;43.20;21.80;;;49.06;14.02;101014.03;5107871;27;20238;-63
2022/08/04 10:36:05;;;;;;;4.35;2.50;;;43.30;22.10;;;49.16;13.21;101009.44;5111561;28;20252;-64
2022/08/04 10:38:44;;;;;;;4.43;3.15;;;43.40;21.50;;;49.12;13.28;101008.72;5112725;28;20224;-63
2022/08/04 10:41:29;;;;;;;3.58;3.13;;;43.40;21.70;;;49.06;13.07;101002.03;5112367;28;20259;-64
2022/08/04 10:44:14;;;;;;;3.28;2.80;;;43.50;21.20;;;48.69;14.04;101006.72;5094487;27;20231;-64
2022/08/04 10:46:50;;;;;;;4.13;2.88;;;43.60;21.60;;;48.39;13.84;100995.69;5092215;28;20181;-63
2022/08/04 10:49:23;;;;;;;2.50;2.40;;;43.60;20.70;;;47.67;14.08;101002.00;5092754;28;20207;-64
2022/08/04 10:51:59;;;;;;;3.83;3.58;;;43.50;21.20;;;46.91;14.61;100989.38;5091175;28;20212;-63
2022/08/04 10:54:42;;;;;;;3.33;2.65;;;43.30;21.00;;;46.05;14.96;100991.34;5089512;28;20478;-64
2022/08/04 10:57:18;;;;;;;3.00;2.78;;;42.90;20.80;;;45.17;16.18;100991.00;5095933;28;20245;-63
2022/08/04 10:59:58;;;;;;;3.17;2.92;;;42.40;21.60;;;44.33;16.70;100984.38;5096757;28;20192;-64
2022/08/04 11:02:45;;;;;;;2.95;2.70;;;42.00;22.30;;;43.75;17.00;100988.25;5100014;28;20207;-64
2022/08/04 11:05:26;;;;;;;4.65;3.05;;;41.60;22.70;;;43.21;17.59;100984.84;5116875;28;20192;-64
2022/08/04 11:08:02;;;;;;;3.75;2.80;;;41.10;22.90;;;42.67;17.86;100985.72;5111482;28;20199;-63
2022/08/04 11:10:45;;;;;;;2.95;2.75;;;40.50;23.20;;;42.06;18.79;100984.38;5096220;28;20184;-63
2022/08/04 11:13:16;;;;;;;2.67;2.58;;;40.10;23.60;;;41.49;19.20;100990.47;5105999;28;20211;-65
2022/08/04 11:16:02;;;;;;;3.25;3.00;;;39.70;24.20;;;41.16;20.39;100989.25;5100952;28;20192;-62
2022/08/04 11:18:47;;;;;;;4.05;2.97;;;39.40;25.10;;;40.96;20.14;100987.00;5097145;28;20191;-63
2022/08/04 11:21:20;;;;;;;3.33;3.08;;;39.20;25.60;;;40.87;20.55;100995.56;5095605;28;20264;-63